createdAt,value
2022-11-18T00:07:26.222Z,1.37
2022-11-18T00:15:46.747Z,1.00
2022-11-18T00:24:40.178Z,0.80
2022-11-18T00:33:25.522Z,1.10
2022-11-18T00:36:11.168Z,0.93
2022-11-18T00:39:02.619Z,1.10
2022-11-18T00:45:04.804Z,0.90
2022-11-18T00:47:48.021Z,1.00
2022-11-18T00:53:23.877Z,1.10
2022-11-18T00:56:11.591Z,0.83
2022-11-18T00:59:02.761Z,0.80
2022-11-18T01:01:36.186Z,0.83
2022-11-18T01:04:15.940Z,0.93
2022-11-18T01:06:46.031Z,0.90
2022-11-18T01:09:16.554Z,1.00
2022-11-18T01:12:05.664Z,0.73
2022-11-18T01:14:35.225Z,1.20
2022-11-18T01:17:05.075Z,0.87
2022-11-18T01:19:37.599Z,0.90
2022-11-18T01:22:08.883Z,0.67
2022-11-18T01:24:38.669Z,1.00
2022-11-18T01:27:15.061Z,1.63
2022-11-18T01:32:44.298Z,1.43
2022-11-18T01:35:15.749Z,1.00
2022-11-18T01:37:48.158Z,1.03
2022-11-18T01:43:20.887Z,1.10
2022-11-18T01:46:04.887Z,1.00
2022-11-18T01:48:36.250Z,0.87
2022-11-18T01:51:09.094Z,1.10
2022-11-18T01:56:32.167Z,1.30
2022-11-18T01:59:15.657Z,0.90
2022-11-18T02:01:44.826Z,1.10
2022-11-18T02:04:21.934Z,1.00
2022-11-18T02:06:53.384Z,1.10
2022-11-18T02:09:24.593Z,0.93
2022-11-18T02:11:54.901Z,1.10
2022-11-18T02:14:31.211Z,1.03
2022-11-18T02:17:17.169Z,1.27
2022-11-18T02:20:02.014Z,0.90
2022-11-18T02:22:53.238Z,1.20
2022-11-18T02:25:31.494Z,1.17
2022-11-18T02:28:08.612Z,1.00
2022-11-18T02:30:47.528Z,1.00
2022-11-18T02:33:21.018Z,1.30
2022-11-18T02:35:56.926Z,1.17
2022-11-18T02:38:29.717Z,1.10
2022-11-18T02:41:02.729Z,1.60
2022-11-18T02:43:35.806Z,1.30
2022-11-18T02:46:11.254Z,1.40
2022-11-18T02:48:45.112Z,1.30
2022-11-18T02:51:18.640Z,1.50
2022-11-18T02:54:02.315Z,1.50
2022-11-18T02:56:34.237Z,1.60
2022-11-18T02:59:04.942Z,1.23
2022-11-18T03:01:37.177Z,1.30
2022-11-18T03:04:07.099Z,1.47
2022-11-18T03:06:42.074Z,1.57
2022-11-18T03:09:13.728Z,1.23
2022-11-18T03:11:53.461Z,1.30
2022-11-18T03:14:27.705Z,1.40
2022-11-18T03:17:04.218Z,1.20
2022-11-18T03:19:45.213Z,1.10
2022-11-18T03:22:17.448Z,1.20
2022-11-18T03:24:49.032Z,0.87
2022-11-18T03:27:23.131Z,0.90
2022-11-18T03:29:56.505Z,1.10
2022-11-18T03:32:31.483Z,0.97
2022-11-18T03:35:03.238Z,1.10
2022-11-18T03:37:34.246Z,0.83
2022-11-18T03:40:10.004Z,0.90
2022-11-18T03:42:43.172Z,0.83
2022-11-18T03:45:16.785Z,0.73
2022-11-18T03:47:51.908Z,0.93
2022-11-18T03:50:25.072Z,0.80
2022-11-18T03:52:55.504Z,0.80
2022-11-18T03:55:26.753Z,1.00
2022-11-18T04:00:47.922Z,0.80
2022-11-18T04:03:21.156Z,1.00
2022-11-18T04:05:59.405Z,1.00
2022-11-18T04:08:43.595Z,0.70
2022-11-18T04:11:34.200Z,0.70
2022-11-18T04:14:06.952Z,0.70
2022-11-18T04:16:43.816Z,0.73
2022-11-18T04:19:15.835Z,0.57
2022-11-18T04:24:31.561Z,1.00
2022-11-18T04:27:08.440Z,0.90
2022-11-18T04:29:40.717Z,0.90
2022-11-18T04:32:14.516Z,0.70
2022-11-18T04:34:56.115Z,0.83
2022-11-18T04:37:26.530Z,1.20
2022-11-18T04:42:57.186Z,0.73
2022-11-18T04:45:40.231Z,0.60
2022-11-18T04:48:23.793Z,0.60
2022-11-18T04:51:14.346Z,0.50
2022-11-18T04:53:45.960Z,0.47
2022-11-18T04:56:22.941Z,0.50
2022-11-18T05:04:32.454Z,0.50
2022-11-18T05:07:18.198Z,0.57
2022-11-18T05:09:53.008Z,0.60
2022-11-18T05:15:09.534Z,0.70
2022-11-18T05:17:39.917Z,0.70
2022-11-18T05:22:54.357Z,0.60
2022-11-18T05:25:25.287Z,0.80
2022-11-18T05:27:53.902Z,0.43
2022-11-18T05:30:23.171Z,0.57
2022-11-18T05:32:52.717Z,0.50
2022-11-18T05:35:22.472Z,0.50
2022-11-18T05:40:51.751Z,0.60
2022-11-18T05:43:21.397Z,0.60
2022-11-18T05:46:00.331Z,0.50
2022-11-18T05:48:30.471Z,0.53
2022-11-18T05:53:58.888Z,0.40
2022-11-18T05:56:42.174Z,0.70
2022-11-18T05:59:15.839Z,0.60
2022-11-18T06:05:02.841Z,0.50
2022-11-18T06:08:37.952Z,0.70
2022-11-18T06:14:18.464Z,0.70
2022-11-18T06:16:50.729Z,0.70
2022-11-18T06:19:19.369Z,0.57
2022-11-18T06:21:48.640Z,0.43
2022-11-18T06:24:17.679Z,0.70
2022-11-18T06:26:47.511Z,0.67
2022-11-18T06:29:27.226Z,1.00
2022-11-18T06:31:56.925Z,1.70
2022-11-18T06:34:25.691Z,1.10
2022-11-18T06:36:55.878Z,1.20
2022-11-18T06:39:24.956Z,0.70
2022-11-18T06:44:43.323Z,0.60
2022-11-18T06:47:11.850Z,0.70
2022-11-18T06:49:40.455Z,0.73
2022-11-18T06:52:09.578Z,0.60
2022-11-18T06:54:38.185Z,0.60
2022-11-18T06:57:07.760Z,0.77
2022-11-18T06:59:36.711Z,0.47
2022-11-18T07:02:07.183Z,0.90
2022-11-18T07:04:39.617Z,0.80
2022-11-18T07:07:09.140Z,0.70
2022-11-18T07:09:38.184Z,0.70
2022-11-18T07:12:08.220Z,0.40
2022-11-18T07:14:38.848Z,0.50
2022-11-18T07:17:10.070Z,0.80
2022-11-18T07:19:39.967Z,0.67
2022-11-18T07:22:10.434Z,0.50
2022-11-18T07:27:24.554Z,0.50
2022-11-18T07:29:53.899Z,0.60
2022-11-18T07:32:49.690Z,0.40
2022-11-18T07:35:22.787Z,0.47
2022-11-18T07:38:06.301Z,0.40
2022-11-18T07:41:01.622Z,0.57
2022-11-18T07:44:06.277Z,0.60
2022-11-18T07:46:43.478Z,0.70
2022-11-18T07:49:37.085Z,0.40
2022-11-18T07:52:20.212Z,0.73
2022-11-18T07:54:59.544Z,0.53
2022-11-18T07:57:32.143Z,0.70
2022-11-18T08:00:20.032Z,0.70
2022-11-18T08:03:14.491Z,0.70
2022-11-18T08:08:58.336Z,0.50
2022-11-18T08:11:51.406Z,0.70
2022-11-18T08:14:29.019Z,0.50
2022-11-18T08:17:27.621Z,0.63
2022-11-18T08:22:56.776Z,0.50
2022-11-18T08:25:35.330Z,0.60
2022-11-18T08:28:08.245Z,0.80
2022-11-18T08:30:38.095Z,0.60
2022-11-18T08:33:22.056Z,0.80
2022-11-18T08:42:59.774Z,0.80
2022-11-18T08:45:42.723Z,0.87
2022-11-18T08:51:29.406Z,0.80
2022-11-18T08:57:38.936Z,1.10
2022-11-18T09:00:26.037Z,1.07
2022-11-18T09:03:19.403Z,1.20
2022-11-18T09:06:10.279Z,1.20
2022-11-18T09:29:08.755Z,0.90
2022-11-18T09:51:54.604Z,1.03
2022-11-18T09:54:28.877Z,0.67
2022-11-18T09:56:59.232Z,0.70
2022-11-18T09:59:31.283Z,0.83
2022-11-18T10:02:07.524Z,0.80
2022-11-18T10:04:39.402Z,0.60
2022-11-18T10:07:20.350Z,0.60
2022-11-18T10:09:51.617Z,0.60
2022-11-18T10:12:31.848Z,0.60
2022-11-18T10:15:18.691Z,0.53
2022-11-18T10:18:05.302Z,0.93
2022-11-18T10:20:57.718Z,0.50
2022-11-18T10:23:33.449Z,1.00
2022-11-18T10:26:06.225Z,0.70
2022-11-18T10:28:36.299Z,0.80
2022-11-18T10:31:17.268Z,0.67
2022-11-18T10:37:12.890Z,0.63
2022-11-18T10:45:29.904Z,0.77
2022-11-18T10:48:17.031Z,0.60
2022-11-18T10:51:25.269Z,0.70
2022-11-18T10:54:06.349Z,0.67
2022-11-18T11:11:08.491Z,0.50
2022-11-18T11:16:19.995Z,1.20
2022-11-18T11:50:21.250Z,0.70
2022-11-18T11:56:22.222Z,1.07
2022-11-18T11:59:08.803Z,0.83
2022-11-18T12:01:42.394Z,0.90
2022-11-18T12:04:16.866Z,0.80
2022-11-18T12:06:48.789Z,0.80
2022-11-18T12:09:23.115Z,1.10
2022-11-18T12:11:57.984Z,1.30
2022-11-18T12:14:38.553Z,1.20
2022-11-18T12:17:15.658Z,1.20
2022-11-18T12:19:44.356Z,1.20
2022-11-18T12:22:15.786Z,1.17
2022-11-18T12:24:44.668Z,1.50
2022-11-18T12:30:25.018Z,0.67
2022-11-18T12:32:59.363Z,0.70
2022-11-18T12:38:35.247Z,0.80
2022-11-18T12:41:20.374Z,0.60
2022-11-18T12:44:08.308Z,0.70
2022-11-18T12:50:16.635Z,0.63
2022-11-18T12:52:53.122Z,0.70
2022-11-18T12:55:31.798Z,0.70
2022-11-18T12:58:01.876Z,0.90
2022-11-18T13:00:52.634Z,1.13
2022-11-18T13:03:26.530Z,0.97
2022-11-18T13:06:00.882Z,0.80
2022-11-18T13:08:30.008Z,0.60
2022-11-18T13:11:26.727Z,0.70
2022-11-18T13:14:16.637Z,0.70
2022-11-18T13:17:06.327Z,0.70
2022-11-18T13:19:35.059Z,0.60
2022-11-18T13:22:21.582Z,0.60
2022-11-18T13:24:53.587Z,0.40
2022-11-18T13:27:50.269Z,0.57
2022-11-18T13:30:31.164Z,0.80
2022-11-18T13:33:00.810Z,0.40
2022-11-18T13:35:30.318Z,0.70
2022-11-18T13:38:00.771Z,0.63
2022-11-18T13:40:30.885Z,0.50
2022-11-18T13:43:05.851Z,0.50
2022-11-18T13:45:36.326Z,0.97
2022-11-18T13:48:11.631Z,0.80
2022-11-18T13:50:51.961Z,0.83
2022-11-18T13:53:29.787Z,0.83
2022-11-18T13:59:18.077Z,0.83
2022-11-18T14:05:03.129Z,0.80
2022-11-18T14:07:33.839Z,1.30
2022-11-18T14:10:18.247Z,1.17
2022-11-18T14:12:51.649Z,1.33
2022-11-18T14:15:24.504Z,0.97
2022-11-18T14:17:57.503Z,1.83
2022-11-18T14:20:34.002Z,1.20
2022-11-18T14:23:05.690Z,1.90
2022-11-18T14:25:50.481Z,1.43
2022-11-18T14:28:26.408Z,1.50
2022-11-18T14:31:09.168Z,1.20
2022-11-18T14:33:40.425Z,1.50
2022-11-18T14:36:40.986Z,1.70
2022-11-18T14:45:02.166Z,1.90
2022-11-18T14:47:33.019Z,1.97
2022-11-18T14:50:05.155Z,2.40
2022-11-18T14:52:36.205Z,2.10
2022-11-18T14:55:09.518Z,2.50
2022-11-18T14:57:46.982Z,2.07
2022-11-18T15:00:20.382Z,2.57
2022-11-18T15:03:01.417Z,2.77
2022-11-18T15:05:31.213Z,2.50
2022-11-18T15:08:01.861Z,2.10
2022-11-18T15:10:33.124Z,2.20
2022-11-18T15:13:05.819Z,1.90
2022-11-18T15:15:48.105Z,1.87
2022-11-18T15:18:25.479Z,1.20
2022-11-18T15:20:55.438Z,1.40
2022-11-18T15:26:24.366Z,1.20
2022-11-18T15:28:55.376Z,1.20
2022-11-18T15:31:25.020Z,1.60
2022-11-18T15:33:54.619Z,1.30
2022-11-18T15:36:24.966Z,1.93
2022-11-18T15:38:56.163Z,1.67
2022-11-18T15:41:26.325Z,1.67
2022-11-18T15:43:56.314Z,1.70
2022-11-18T15:46:26.726Z,1.67
2022-11-18T15:48:59.637Z,1.77
2022-11-18T15:51:30.451Z,2.03
2022-11-18T15:54:02.271Z,1.40
2022-11-18T15:56:40.167Z,1.50
2022-11-18T15:59:14.887Z,1.57
2022-11-18T16:01:46.556Z,1.47
2022-11-18T16:04:17.530Z,1.50
2022-11-18T16:06:46.901Z,1.60
2022-11-18T16:09:18.500Z,1.50
2022-11-18T16:12:05.412Z,1.40
2022-11-18T16:14:35.855Z,1.57
2022-11-18T16:17:04.980Z,1.67
2022-11-18T16:19:47.243Z,1.67
2022-11-18T16:22:15.662Z,2.00
2022-11-18T16:24:48.433Z,1.87
2022-11-18T16:27:20.816Z,2.13
2022-11-18T16:29:49.811Z,2.17
2022-11-18T16:32:18.868Z,2.10
2022-11-18T16:34:48.104Z,2.10
2022-11-18T16:37:16.714Z,2.07
2022-11-18T16:39:46.773Z,1.93
2022-11-18T16:42:15.991Z,2.57
2022-11-18T16:44:45.212Z,2.03
2022-11-18T16:47:15.380Z,2.03
2022-11-18T16:49:44.539Z,1.90
2022-11-18T16:52:14.844Z,2.17
2022-11-18T16:54:45.987Z,2.17
2022-11-18T16:57:16.479Z,2.17
2022-11-18T16:59:48.549Z,2.00
2022-11-18T17:02:20.082Z,2.50
2022-11-18T17:04:49.225Z,2.00
2022-11-18T17:07:18.024Z,2.07
2022-11-18T17:09:46.744Z,1.63
2022-11-18T17:12:16.893Z,1.83
2022-11-18T17:14:45.382Z,2.30
2022-11-18T17:17:13.868Z,1.70
2022-11-18T17:19:43.014Z,2.63
2022-11-18T17:22:11.553Z,2.07
2022-11-18T17:24:44.798Z,2.13
2022-11-18T17:27:13.315Z,1.93
2022-11-18T17:29:46.792Z,2.40
2022-11-18T17:32:15.647Z,1.80
2022-11-18T17:34:43.972Z,2.47
2022-11-18T17:37:12.496Z,2.93
2022-11-18T17:39:41.118Z,2.70
2022-11-18T17:42:15.864Z,2.73
2022-11-18T17:44:46.791Z,2.20
2022-11-18T17:47:15.700Z,2.80
2022-11-18T17:49:44.325Z,3.20
2022-11-18T17:52:12.984Z,3.07
2022-11-18T17:54:42.270Z,2.90
2022-11-18T17:57:14.755Z,3.50
2022-11-18T17:59:45.496Z,2.83
2022-11-18T18:18:16.650Z,5.13
2022-11-18T18:23:42.362Z,3.37
2022-11-18T18:34:55.041Z,5.43
2022-11-18T18:37:26.491Z,6.37
2022-11-18T18:40:13.492Z,5.60
2022-11-18T18:42:57.586Z,4.60
2022-11-18T18:48:41.323Z,13.73
2022-11-18T18:54:35.650Z,2.70
2022-11-18T18:57:08.309Z,3.50
2022-11-18T18:59:38.206Z,3.90
2022-11-18T19:02:08.005Z,3.70
2022-11-18T19:04:43.494Z,3.50
2022-11-18T19:38:16.901Z,3.13
2022-11-18T19:40:45.291Z,3.00
2022-11-18T19:43:14.428Z,2.53
2022-11-18T19:45:42.899Z,3.50
2022-11-18T19:48:13.015Z,2.80
2022-11-18T19:50:50.975Z,2.73
2022-11-18T19:53:53.611Z,2.37
2022-11-18T19:56:29.662Z,2.80
2022-11-18T19:59:07.875Z,2.77
2022-11-18T20:07:56.199Z,3.23
2022-11-18T20:16:23.043Z,3.90
2022-11-18T20:18:54.429Z,3.20
2022-11-18T20:21:38.037Z,4.13
2022-11-18T20:24:22.498Z,3.97
2022-11-18T20:27:38.317Z,3.43
2022-11-18T20:30:38.924Z,3.77
2022-11-18T20:38:57.222Z,3.40
2022-11-18T20:41:27.668Z,2.93
2022-11-18T20:43:57.487Z,4.13
2022-11-18T20:49:28.201Z,2.33
2022-11-18T21:06:54.825Z,2.40
2022-11-18T21:13:08.262Z,2.10
2022-11-18T21:16:16.067Z,2.27
2022-11-18T21:34:01.321Z,2.50
2022-11-18T21:39:31.351Z,2.17
2022-11-18T21:44:59.047Z,2.53
2022-11-18T21:47:33.982Z,2.20
2022-11-18T21:50:05.358Z,2.30
2022-11-18T21:52:34.553Z,2.40
2022-11-18T21:55:04.440Z,2.70
2022-11-18T21:57:36.642Z,2.30
2022-11-18T22:00:20.877Z,2.10
2022-11-18T22:02:59.245Z,2.00
2022-11-18T22:05:36.751Z,2.10
2022-11-18T22:08:15.135Z,2.27
2022-11-18T22:10:55.696Z,1.70
2022-11-18T22:13:26.798Z,1.83
2022-11-18T22:19:10.336Z,1.47
2022-11-18T22:21:58.841Z,1.70
2022-11-18T22:31:48.513Z,1.80
2022-11-18T22:47:26.242Z,1.53
2022-11-18T22:49:58.472Z,1.50
2022-11-18T23:21:55.391Z,2.30
2022-11-18T23:24:44.241Z,1.67
2022-11-18T23:27:19.357Z,1.17
2022-11-18T23:30:27.707Z,1.20
2022-11-18T23:52:30.252Z,1.20
2022-11-18T23:58:01.014Z,0.90
